Time;durP1;ratioP1;P1;durP2;ratioP2;P2;SDS_P1;SDS_P2;PMS_P1;PMS_P2;Temp;Humidity;BMP_temperature;BMP_pressure;BME280_temperature;BME280_humidity;BME280_pressure;Samples;Min_cycle;Max_cycle;Signal;HPM_P1;HPM_P2
2023/04/16 00:01:51;;;;;;;37.80;16.30;;;;;;;8.66;100.00;101055.31;6050075;28;20044;-72
2023/04/16 00:04:46;;;;;;;36.23;16.47;;;;;;;8.68;100.00;101059.50;6053010;28;20045;-70
2023/04/16 00:07:41;;;;;;;41.77;17.37;;;;;;;8.67;100.00;101075.50;6032593;28;20060;-71
2023/04/16 00:10:36;;;;;;;39.10;17.57;;;;;;;8.58;100.00;101068.31;6047728;28;20029;-71
2023/04/16 00:13:32;;;;;;;39.60;18.00;;;;;;;8.57;100.00;101075.41;6031342;28;20519;-71
2023/04/16 00:16:27;;;;;;;39.67;17.70;;;;;;;8.57;100.00;101075.41;6063303;28;20349;-72
2023/04/16 00:19:22;;;;;;;40.67;18.17;;;;;;;8.44;100.00;101056.22;6059541;28;20543;-72
2023/04/16 00:22:18;;;;;;;36.10;16.47;;;;;;;8.55;100.00;101077.34;6049048;28;20545;-71
2023/04/16 00:25:13;;;;;;;36.23;16.80;;;;;;;8.44;100.00;101063.31;6048758;28;20030;-73
2023/04/16 00:28:08;;;;;;;38.90;16.00;;;;;;;8.43;100.00;101058.97;6049434;28;20033;-73
2023/04/16 00:31:04;;;;;;;38.40;18.60;;;;;;;8.38;100.00;101065.47;6051142;28;20352;-72
2023/04/16 00:33:59;;;;;;;35.90;16.40;;;;;;;8.37;100.00;101069.06;6075261;28;20037;-71
2023/04/16 00:36:54;;;;;;;38.70;18.08;;;;;;;8.29;100.00;101068.84;6054076;28;20276;-72
2023/04/16 00:39:50;;;;;;;37.93;16.30;;;;;;;8.26;100.00;101069.06;6049642;28;20196;-71
2023/04/16 00:42:45;;;;;;;38.27;17.40;;;;;;;8.27;100.00;101078.72;6049272;28;20489;-71
2023/04/16 00:45:41;;;;;;;42.90;19.05;;;;;;;8.17;100.00;101082.16;6048935;28;20285;-71
2023/04/16 00:48:37;;;;;;;47.13;19.80;;;;;;;8.13;100.00;101078.91;6038050;28;20049;-71
2023/04/16 00:51:34;;;;;;;47.28;20.17;;;;;;;8.00;100.00;101075.56;6042426;28;20043;-70
2023/04/16 00:54:30;;;;;;;43.15;18.58;;;;;;;7.97;100.00;101075.81;6064081;28;20026;-71
2023/04/16 00:57:26;;;;;;;44.95;18.42;;;;;;;7.94;100.00;101073.41;6049081;28;20030;-71
2023/04/16 01:00:22;;;;;;;45.42;18.55;;;;;;;7.92;100.00;101077.97;6051795;28;20044;-72
2023/04/16 01:03:17;;;;;;;44.38;19.08;;;;;;;7.82;100.00;101077.03;6052974;28;20033;-71
2023/04/16 01:06:13;;;;;;;43.33;20.40;;;;;;;7.79;100.00;101082.53;6047677;28;20482;-73
2023/04/16 01:09:10;;;;;;;45.70;19.63;;;;;;;7.76;100.00;101088.91;6052872;28;20036;-71
2023/04/16 01:12:05;;;;;;;48.72;19.65;;;;;;;7.82;100.00;101106.06;6053480;28;20114;-71
2023/04/16 01:15:01;;;;;;;49.00;19.77;;;;;;;7.73;100.00;101094.41;6058067;28;20042;-69
2023/04/16 01:17:56;;;;;;;44.55;20.63;;;;;;;7.65;100.00;101091.53;6053697;28;20108;-72
2023/04/16 01:20:51;;;;;;;45.30;19.03;;;;;;;7.67;100.00;101088.75;6051322;28;20037;-72
2023/04/16 01:23:47;;;;;;;48.85;22.10;;;;;;;7.63;100.00;101098.72;6050434;28;20096;-72
2023/04/16 01:26:42;;;;;;;53.00;21.60;;;;;;;7.63;100.00;101105.81;6057614;28;20405;-71
2023/04/16 01:29:37;;;;;;;44.03;20.03;;;;;;;7.52;100.00;101100.50;6062351;28;20053;-72
2023/04/16 01:32:32;;;;;;;43.67;20.53;;;;;;;7.52;100.00;101095.22;6053082;28;20041;-70
2023/04/16 01:35:28;;;;;;;48.53;21.33;;;;;;;7.64;100.00;101113.59;6051947;28;20038;-72
2023/04/16 01:38:23;;;;;;;49.47;19.63;;;;;;;7.50;100.00;101092.69;6051915;28;20041;-70
2023/04/16 01:41:18;;;;;;;48.53;21.23;;;;;;;7.62;100.00;101117.31;6052619;28;20125;-72
2023/04/16 01:44:14;;;;;;;49.63;21.43;;;;;;;7.43;100.00;101109.09;6054842;28;20030;-71
2023/04/16 01:47:09;;;;;;;50.97;21.50;;;;;;;7.40;100.00;101104.06;6042409;28;20277;-71
2023/04/16 01:50:05;;;;;;;45.27;19.93;;;;;;;7.39;100.00;101115.59;6052020;28;20451;-72
2023/04/16 01:53:03;;;;;;;45.30;19.92;;;;;;;7.32;100.00;101106.44;6057999;28;20174;-71
2023/04/16 01:55:59;;;;;;;44.67;19.40;;;;;;;7.34;100.00;101128.28;6051896;28;20034;-72
2023/04/16 01:58:54;;;;;;;48.10;19.60;;;;;;;7.29;100.00;101114.56;6065341;28;20057;-71
2023/04/16 02:01:49;;;;;;;47.40;20.90;;;;;;;7.29;100.00;101115.41;6053834;28;20042;-72
2023/04/16 02:04:45;;;;;;;44.55;19.40;;;;;;;7.23;100.00;101107.16;6051319;28;20042;-73
2023/04/16 02:07:40;;;;;;;48.75;19.02;;;;;;;7.26;100.00;101126.19;6052090;28;20073;-72
2023/04/16 02:10:35;;;;;;;43.60;18.90;;;;;;;7.29;100.00;101136.53;6057299;28;20044;-72
2023/04/16 02:13:31;;;;;;;48.33;20.07;;;;;;;7.20;100.00;101124.03;6057979;28;20109;-73
2023/04/16 02:16:26;;;;;;;41.27;18.80;;;;;;;7.27;100.00;101145.50;6043013;28;20591;-73
2023/04/16 02:19:22;;;;;;;43.17;18.67;;;;;;;7.17;100.00;101129.53;6051926;28;20034;-73
2023/04/16 02:22:17;;;;;;;45.03;19.88;;;;;;;7.24;100.00;101132.53;6051755;28;20135;-71
2023/04/16 02:25:13;;;;;;;42.80;18.13;;;;;;;7.27;100.00;101132.31;6055156;28;20033;-73
2023/04/16 02:28:09;;;;;;;46.77;19.13;;;;;;;7.12;100.00;101129.03;6054134;28;20084;-71
2023/04/16 02:31:04;;;;;;;45.70;19.65;;;;;;;7.18;100.00;101145.22;6051814;28;20296;-71
2023/04/16 02:34:00;;;;;;;50.13;19.90;;;;;;;7.23;100.00;101147.53;6041795;28;20041;-72
2023/04/16 02:36:57;;;;;;;45.80;19.77;;;;;;;6.98;100.00;101132.69;6051250;28;20041;-73
2023/04/16 02:39:52;;;;;;;42.17;18.63;;;;;;;7.05;100.00;101139.19;6060985;28;20052;-74
2023/04/16 02:42:47;;;;;;;48.17;20.00;;;;;;;7.04;100.00;101142.78;6057720;28;20065;-74
2023/04/16 02:45:43;;;;;;;39.40;18.07;;;;;;;7.12;100.00;101152.78;6033297;28;20080;-73
2023/04/16 02:48:38;;;;;;;42.10;18.20;;;;;;;7.12;100.00;101153.59;6050756;28;20280;-71
2023/04/16 02:51:34;;;;;;;41.63;17.98;;;;;;;7.04;100.00;101153.31;6052667;28;20029;-73
2023/04/16 02:54:29;;;;;;;47.87;18.63;;;;;;;7.02;100.00;101152.59;6073915;28;20037;-72
2023/04/16 02:57:24;;;;;;;45.03;18.60;;;;;;;6.97;100.00;101151.25;6088988;28;20105;-71
2023/04/16 03:00:20;;;;;;;47.23;19.50;;;;;;;6.95;100.00;101159.28;6074616;28;20034;-73
2023/04/16 03:03:15;;;;;;;40.33;18.23;;;;;;;6.84;100.00;101156.59;6048598;28;20053;-72
2023/04/16 03:06:11;;;;;;;46.97;19.65;;;;;;;6.94;100.00;101172.56;6032987;28;20612;-75
2023/04/16 03:09:06;;;;;;;47.35;19.58;;;;;;;6.78;100.00;101151.75;6058291;28;20042;-71
2023/04/16 03:12:02;;;;;;;46.10;19.43;;;;;;;6.92;100.00;101172.69;6056005;28;20038;-72
2023/04/16 03:14:57;;;;;;;52.30;19.97;;;;;;;6.87;100.00;101172.19;6049776;28;20026;-70
2023/04/16 03:17:53;;;;;;;47.53;18.90;;;;;;;6.91;100.00;101173.63;6050888;28;20269;-72
2023/04/16 03:20:52;;;;;;;46.35;17.35;;;;;;;6.85;100.00;101163.53;6045969;28;20045;-73
2023/04/16 03:23:48;;;;;;;47.10;18.85;;;;;;;6.84;100.00;101172.41;6049183;28;20033;-72
2023/04/16 03:26:43;;;;;;;45.90;19.75;;;;;;;6.84;100.00;101176.81;6060150;28;20045;-73
2023/04/16 03:29:38;;;;;;;49.03;20.70;;;;;;;6.76;100.00;101169.47;6055462;28;20042;-73
2023/04/16 03:32:34;;;;;;;50.00;20.42;;;;;;;6.82;100.00;101184.81;6050478;28;20040;-70
2023/04/16 03:35:30;;;;;;;54.95;21.00;;;;;;;6.77;100.00;101173.78;6049168;28;20040;-72
2023/04/16 03:38:25;;;;;;;48.90;19.67;;;;;;;6.68;100.00;101170.97;6050135;28;20029;-71
2023/04/16 03:41:20;;;;;;;49.80;20.67;;;;;;;6.74;100.00;101183.72;6052250;28;20687;-73
2023/04/16 03:44:16;;;;;;;55.97;21.83;;;;;;;6.70;100.00;101185.72;6059008;28;20288;-70
2023/04/16 03:47:11;;;;;;;54.77;20.90;;;;;;;6.67;100.00;101183.31;6050126;28;20344;-72
2023/04/16 03:50:06;;;;;;;62.33;22.10;;;;;;;6.63;100.00;101179.22;6050119;28;20025;-72
2023/04/16 03:53:02;;;;;;;57.40;21.88;;;;;;;6.81;100.00;101187.59;6048984;28;20045;-70
2023/04/16 03:55:58;;;;;;;53.60;20.50;;;;;;;6.71;100.00;101195.31;6050196;28;20038;-72
2023/04/16 03:58:53;;;;;;;70.45;22.00;;;;;;;6.58;100.00;101176.88;6058073;28;20057;-71
2023/04/16 04:01:48;;;;;;;55.00;21.03;;;;;;;6.60;100.00;101195.25;6050098;28;20049;-71
2023/04/16 04:04:43;;;;;;;53.73;21.60;;;;;;;6.60;100.00;101185.50;6048882;28;20391;-70
2023/04/16 04:07:39;;;;;;;64.07;21.77;;;;;;;6.57;100.00;101198.09;6047882;28;20057;-70
2023/04/16 04:10:35;;;;;;;62.25;22.80;;;;;;;6.56;100.00;101197.25;6048625;28;20034;-70
2023/04/16 04:13:30;;;;;;;60.45;21.35;;;;;;;6.53;100.00;101194.81;6048176;28;20096;-71
2023/04/16 04:16:25;;;;;;;58.13;21.83;;;;;;;6.52;100.00;101195.75;6063521;28;20044;-73
2023/04/16 04:19:20;;;;;;;51.67;19.73;;;;;;;6.49;100.00;101189.88;6072534;28;20029;-70
2023/04/16 04:22:16;;;;;;;54.57;19.83;;;;;;;6.45;100.00;101191.03;6069232;28;20494;-72
2023/04/16 04:25:11;;;;;;;54.27;21.27;;;;;;;6.53;100.00;101205.34;6044387;28;20030;-72
2023/04/16 04:28:07;;;;;;;50.58;18.52;;;;;;;6.50;100.00;101199.44;6048909;28;20044;-72
2023/04/16 04:31:02;;;;;;;58.90;21.13;;;;;;;6.57;100.00;101211.25;6052983;28;20037;-72
2023/04/16 04:33:57;;;;;;;51.00;20.43;;;;;;;6.50;100.00;101199.44;6047807;28;20033;-72
2023/04/16 04:36:53;;;;;;;48.45;19.50;;;;;;;6.51;100.00;101206.41;6048573;28;20046;-72
2023/04/16 04:39:48;;;;;;;45.47;19.17;;;;;;;6.55;100.00;101218.41;6048403;28;20049;-71
2023/04/16 04:42:43;;;;;;;56.37;21.00;;;;;;;6.46;100.00;101198.84;6047875;28;20029;-72
2023/04/16 04:45:39;;;;;;;49.43;18.73;;;;;;;6.49;100.00;101205.69;6047203;28;20422;-72
2023/04/16 04:48:34;;;;;;;47.13;19.42;;;;;;;6.50;100.00;101199.44;6049283;28;20525;-73
2023/04/16 04:51:30;;;;;;;43.67;17.85;;;;;;;6.57;100.00;101206.84;6048090;28;20376;-70
2023/04/16 04:54:27;;;;;;;50.78;18.75;;;;;;;6.53;100.00;101204.50;6048249;28;20064;-71
2023/04/16 04:57:22;;;;;;;51.15;18.40;;;;;;;6.61;100.00;101217.97;6062050;28;20112;-70
2023/04/16 05:00:17;;;;;;;48.17;17.87;;;;;;;6.56;100.00;101217.47;6039738;28;20480;-71
2023/04/16 05:03:18;;;;;;;52.03;19.10;;;;;;;6.56;100.00;101209.56;6050333;28;20578;-72
2023/04/16 05:06:14;;;;;;;51.47;18.37;;;;;;;6.57;100.00;101211.25;6013852;28;1009013;-71
2023/04/16 05:09:10;;;;;;;54.70;19.08;;;;;;;6.53;100.00;101207.16;6058628;28;20852;-73
2023/04/16 05:12:05;;;;;;;46.40;18.58;;;;;;;6.56;100.00;101228.84;6057580;28;20053;-71
2023/04/16 05:15:01;;;;;;;55.20;20.60;;;;;;;6.53;100.00;101215.03;6051779;28;20037;-72
2023/04/16 05:17:56;;;;;;;49.57;19.60;;;;;;;6.47;100.00;101216.31;6060550;28;20036;-70
2023/04/16 05:20:51;;;;;;;46.43;17.70;;;;;;;6.55;100.00;101218.41;6082419;28;20037;-72
2023/04/16 05:23:46;;;;;;;47.97;18.17;;;;;;;6.54;100.00;101228.13;6068593;28;20048;-71
2023/04/16 05:26:42;;;;;;;50.40;20.55;;;;;;;6.59;100.00;101231.28;6048748;28;20030;-73
2023/04/16 05:29:37;;;;;;;48.00;19.63;;;;;;;6.65;100.00;101245.81;6053618;28;20049;-71
2023/04/16 05:32:32;;;;;;;55.30;20.40;;;;;;;6.52;100.00;101237.09;6047269;28;20064;-72
2023/04/16 05:35:28;;;;;;;54.07;20.23;;;;;;;6.54;100.00;101243.09;6048194;28;20320;-73
2023/04/16 05:38:23;;;;;;;45.75;18.67;;;;;;;6.69;100.00;101263.09;6059397;28;20037;-71
2023/04/16 05:41:18;;;;;;;47.77;17.47;;;;;;;6.72;100.00;101273.41;6048377;28;20478;-71
2023/04/16 05:44:14;;;;;;;41.50;17.87;;;;;;;6.60;100.00;101256.66;6047986;28;20071;-70
2023/04/16 05:47:09;;;;;;;44.40;17.45;;;;;;;6.62;100.00;101272.38;6047725;28;20042;-72
2023/04/16 05:50:05;;;;;;;47.92;17.95;;;;;;;6.73;100.00;101284.81;6054879;28;20033;-70
2023/04/16 05:53:06;;;;;;;43.80;17.52;;;;;;;6.72;100.00;101283.94;6053480;28;20064;-72
2023/04/16 05:56:02;;;;;;;45.33;17.20;;;;;;;6.67;100.00;101283.44;6053735;28;20407;-71
2023/04/16 05:58:57;;;;;;;39.60;16.43;;;;;;;6.77;100.00;101287.09;6052427;28;20069;-71
2023/04/16 06:01:52;;;;;;;37.85;16.25;;;;;;;6.63;100.00;101262.69;6051162;28;20045;-70
2023/04/16 06:04:48;;;;;;;42.73;16.77;;;;;;;6.69;100.00;101281.53;6050386;28;20173;-72
2023/04/16 06:07:44;;;;;;;44.28;17.20;;;;;;;6.63;100.00;101267.97;6051176;28;20040;-71
2023/04/16 06:10:39;;;;;;;40.13;16.30;;;;;;;6.65;100.00;101276.59;6052381;28;20033;-71
2023/04/16 06:13:35;;;;;;;47.63;17.15;;;;;;;6.71;100.00;101281.44;6051460;28;20041;-72
2023/04/16 06:16:31;;;;;;;41.72;15.85;;;;;;;6.68;100.00;101271.97;6051342;28;20048;-71
2023/04/16 06:19:26;;;;;;;44.72;16.95;;;;;;;6.76;100.00;101290.72;6050153;28;20120;-69
2023/04/16 06:22:21;;;;;;;41.27;16.57;;;;;;;6.86;100.00;101310.19;6052207;28;20034;-70
2023/04/16 06:25:17;;;;;;;39.33;15.35;;;;;;;6.76;100.00;101298.63;6083602;28;20065;-72
2023/04/16 06:28:12;;;;;;;35.13;15.37;;;;;;;6.80;100.00;101291.31;6052084;28;20042;-71
2023/04/16 06:31:07;;;;;;;38.33;16.60;;;;;;;6.87;100.00;101309.25;6052099;28;20037;-71
2023/04/16 06:34:03;;;;;;;36.40;14.10;;;;;;;6.80;100.00;101302.72;6041363;28;20070;-72
2023/04/16 06:36:58;;;;;;;36.63;14.57;;;;;;;6.82;100.00;101282.34;6051545;28;20040;-72
2023/04/16 06:39:53;;;;;;;42.07;16.60;;;;;;;6.97;100.00;101319.97;6051708;28;20061;-72
2023/04/16 06:42:48;;;;;;;35.77;15.30;;;;;;;6.82;100.00;101311.34;6051601;28;20034;-72
2023/04/16 06:45:44;;;;;;;42.10;15.30;;;;;;;6.93;100.00;101327.25;6061776;28;20088;-69
2023/04/16 06:48:39;;;;;;;42.57;16.17;;;;;;;6.93;100.00;101318.53;6062312;28;20025;-71
2023/04/16 06:51:35;;;;;;;35.15;15.18;;;;;;;7.02;100.00;101336.31;6059573;28;20103;-71
2023/04/16 06:54:30;;;;;;;36.45;14.68;;;;;;;6.98;100.00;101330.44;6089263;28;20225;-70
2023/04/16 06:57:25;;;;;;;36.72;15.60;;;;;;;7.06;100.00;101328.09;6084358;28;20029;-73
2023/04/16 07:00:21;;;;;;;38.63;15.10;;;;;;;6.89;100.00;101312.63;6086105;28;20037;-73
2023/04/16 07:03:16;;;;;;;33.40;15.37;;;;;;;7.00;100.00;101333.81;6075445;28;20232;-72
2023/04/16 07:06:11;;;;;;;39.93;15.50;;;;;;;7.02;100.00;101334.53;6085679;28;20036;-70
2023/04/16 07:09:07;;;;;;;33.50;13.93;;;;;;;7.00;100.00;101346.97;6074975;28;20091;-69
2023/04/16 07:12:02;;;;;;;37.93;13.87;;;;;;;7.11;100.00;101347.06;6074602;28;20030;-73
2023/04/16 07:14:57;;;;;;;35.57;14.23;;;;;;;7.02;100.00;101326.63;6073944;28;20061;-71
2023/04/16 07:17:53;;;;;;;35.25;14.07;;;;;;;7.04;100.00;101335.25;6075062;28;20061;-69
2023/04/16 07:20:48;;;;;;;33.93;13.13;;;;;;;7.22;100.00;101348.94;6074603;28;20124;-72
2023/04/16 07:23:43;;;;;;;28.47;12.73;;;;;;;7.12;100.00;101340.81;6077419;28;20037;-71
2023/04/16 07:26:39;;;;;;;33.43;13.03;;;;;;;7.15;100.00;101351.16;6078639;28;20025;-70
2023/04/16 07:29:34;;;;;;;36.72;14.55;;;;;;;7.20;100.00;101348.22;6074206;28;20076;-71
2023/04/16 07:32:29;;;;;;;33.55;13.65;;;;;;;7.15;100.00;101345.88;6074318;28;20037;-70
2023/04/16 07:35:25;;;;;;;27.30;12.10;;;;;;;7.19;100.00;101341.25;6084942;28;20037;-72
2023/04/16 07:38:20;;;;;;;32.30;13.87;;;;;;;7.28;100.00;101355.59;6077013;28;20179;-71
2023/04/16 07:41:15;;;;;;;32.57;12.87;;;;;;;7.37;100.00;101365.44;6076710;28;20300;-72
2023/04/16 07:44:11;;;;;;;31.27;11.63;;;;;;;7.43;100.00;101367.66;6098264;28;20033;-71
2023/04/16 07:47:06;;;;;;;28.80;12.70;;;;;;;7.36;100.00;101371.69;6074116;28;20471;-72
2023/04/16 07:50:01;;;;;;;27.70;12.17;;;;;;;7.38;100.00;101364.50;6082817;28;20040;-71
2023/04/16 07:52:57;;;;;;;29.80;12.40;;;;;;;7.45;100.00;101373.66;6073281;28;20025;-72
2023/04/16 07:55:52;;;;;;;28.27;12.37;;;;;;;7.47;100.00;101385.81;6078051;28;20291;-71
2023/04/16 07:58:47;;;;;;;30.90;13.10;;;;;;;7.44;100.00;101372.00;6080486;28;20029;-70
2023/04/16 08:01:42;;;;;;;29.43;12.67;;;;;;;7.44;100.00;101382.56;6073746;28;20501;-70
2023/04/16 08:04:38;;;;;;;32.50;12.97;;;;;;;7.43;100.00;101373.78;6072829;28;20132;-70
2023/04/16 08:07:33;;;;;;;34.30;13.07;;;;;;;7.56;100.00;101398.34;6073269;28;20029;-70
2023/04/16 08:10:28;;;;;;;32.65;13.32;;;;;;;7.73;100.00;101399.78;6073120;28;20284;-72
2023/04/16 08:13:24;;;;;;;36.13;12.47;;;;;;;7.65;100.00;101391.56;6072672;28;20452;-71
2023/04/16 08:16:19;;;;;;;27.40;11.85;;;;;;;7.59;100.00;101394.63;6073167;28;20029;-71
2023/04/16 08:19:15;;;;;;;29.10;12.30;;;;;;;7.65;100.00;101408.25;6073351;28;20045;-69
2023/04/16 08:22:13;;;;;;;30.73;12.63;;;;;;;7.82;100.00;101404.41;6073486;28;20333;-72
2023/04/16 08:25:08;;;;;;;26.60;11.63;;;;;;;7.85;100.00;101409.44;6072135;28;20034;-71
2023/04/16 08:28:04;;;;;;;26.73;12.18;;;;;;;7.98;100.00;101398.84;6073781;28;20389;-70
2023/04/16 08:30:59;;;;;;;28.67;11.75;;;;;;;8.00;100.00;101399.56;6095608;28;20070;-72
2023/04/16 08:33:54;;;;;;;29.27;12.73;;;;;;;8.11;100.00;101411.03;6072102;28;20485;-70
2023/04/16 08:36:50;;;;;;;27.77;11.03;;;;;;;8.26;100.00;101417.78;6073277;28;20033;-70
2023/04/16 08:39:45;;;;;;;28.47;10.83;;;;;;;8.27;100.00;101421.31;6072418;28;20171;-71
2023/04/16 08:42:55;;;;;;;22.30;10.60;;;;;;;8.26;100.00;101417.78;6072893;28;20482;-70
2023/04/16 08:45:52;;;;;;;24.20;10.75;;;;;;;8.48;100.00;101429.47;6072032;28;20037;-71
2023/04/16 08:48:48;;;;;;;26.70;10.93;;;;;;;8.38;100.00;101429.28;6081923;28;20029;-70
2023/04/16 08:51:50;;;;;;;29.42;11.35;;;;;;;8.24;100.00;101414.44;6083692;28;20060;-74
2023/04/16 08:54:52;;;;;;;25.02;10.85;;;;;;;8.36;100.00;101432.06;6084526;28;20028;-72
2023/04/16 08:57:53;;;;;;;27.50;12.05;;;;;;;8.35;100.00;101427.72;6101871;28;20029;-72
2023/04/16 09:00:49;;;;;;;26.02;11.38;;;;;;;8.55;100.00;101431.53;6083845;28;20037;-71
2023/04/16 09:03:47;;;;;;;28.05;10.70;;;;;;;8.47;100.00;101418.03;6075557;28;20029;-71
2023/04/16 09:06:43;;;;;;;25.13;9.85;;;;;;;8.51;100.00;101424.78;6072773;28;20407;-72
2023/04/16 09:09:38;;;;;;;23.05;10.93;;;;;;;8.37;100.00;101438.16;6054990;28;20033;-70
2023/04/16 09:12:34;;;;;;;24.95;11.00;;;;;;;8.46;100.00;101431.34;6072378;28;20566;-70
2023/04/16 09:15:30;;;;;;;20.95;9.55;;;;;;;8.47;100.00;101438.34;6071397;28;20037;-71
2023/04/16 09:18:27;;;;;;;26.92;10.82;;;;;;;8.45;100.00;101429.69;6087462;28;20033;-71
2023/04/16 09:21:22;;;;;;;26.20;10.75;;;;;;;8.43;100.00;101436.88;6072566;28;20025;-72
2023/04/16 09:24:18;;;;;;;24.23;10.07;;;;;;;8.52;100.00;101457.34;6071871;28;20473;-72
2023/04/16 09:27:13;;;;;;;23.38;10.73;;;;;;;8.49;100.00;101436.41;6070269;28;20041;-71
2023/04/16 09:30:21;;;;;;;21.13;8.93;;;;;;;8.65;100.00;101466.03;6076062;28;20111;-72
2023/04/16 09:33:21;;;;;;;19.60;9.50;;;;;;;8.60;100.00;101457.59;6084579;28;20029;-72
2023/04/16 09:36:21;;;;;;;21.70;9.90;;;;;;;8.65;100.00;101463.38;6088587;28;20030;-71
2023/04/16 09:39:18;;;;;;;23.38;10.57;;;;;;;8.36;100.00;101458.50;6076505;28;20033;-71
2023/04/16 09:42:13;;;;;;;24.15;9.77;;;;;;;8.23;100.00;101467.41;6077261;28;20071;-71
2023/04/16 09:45:09;;;;;;;26.00;11.07;;;;;;;8.16;100.00;101461.72;6076011;28;20029;-71
2023/04/16 09:48:05;;;;;;;29.42;11.10;;;;;;;8.15;100.00;101464.47;6077022;28;20038;-72
2023/04/16 09:51:00;;;;;;;22.92;10.60;;;;;;;8.16;100.00;101480.19;6076824;28;20036;-70
2023/04/16 09:53:56;;;;;;;28.10;11.20;;;;;;;8.09;100.00;101476.34;6076535;28;20425;-71
2023/04/16 09:56:55;;;;;;;29.33;11.63;;;;;;;7.99;100.00;101474.47;6077482;28;20494;-72
2023/04/16 10:00:27;;;;;;;26.55;11.65;;;;;;;8.08;100.00;101482.56;6085683;28;20037;-71
2023/04/16 10:03:30;;;;;;;26.60;11.82;;;;;;;7.93;100.00;101478.41;6093576;28;20033;-71
2023/04/16 10:06:28;;;;;;;26.25;11.32;;;;;;;7.95;100.00;101494.13;6085976;28;20029;-71
2023/04/16 10:09:23;;;;;;;28.38;12.07;;;;;;;7.84;100.00;101484.31;6095307;28;20397;-69
2023/04/16 10:12:19;;;;;;;26.30;12.50;;;;;;;7.87;100.00;101502.59;6091105;28;20112;-72
2023/04/16 10:15:14;;;;;;;24.95;11.35;;;;;;;7.65;100.00;101481.31;6075346;28;20113;-71
2023/04/16 10:18:10;;;;;;;27.13;12.33;;;;;;;7.81;100.00;101508.31;6076239;28;20025;-72
2023/04/16 10:21:05;;;;;;;25.45;12.63;;;;;;;7.76;100.00;101505.16;6091549;28;20789;-70
2023/04/16 10:24:01;;;;;;;33.15;12.50;;;;;;;7.68;100.00;101489.84;6074694;28;20040;-71
2023/04/16 10:26:57;;;;;;;27.58;12.93;;;;;;;7.80;100.00;101514.53;6058319;28;20418;-70
2023/04/16 10:29:53;;;;;;;28.50;11.27;;;;;;;7.77;100.00;101504.22;6075906;28;20112;-71
2023/04/16 10:32:48;;;;;;;29.23;11.87;;;;;;;7.88;100.00;101504.25;6089857;28;20045;-71
2023/04/16 10:35:44;;;;;;;25.83;11.40;;;;;;;8.01;100.00;101498.97;6073099;28;20397;-73
2023/04/16 10:38:44;;;;;;;24.27;11.77;;;;;;;7.91;100.00;101482.09;6074761;28;20041;-72
2023/04/16 10:41:41;;;;;;;33.75;13.15;;;;;;;7.79;100.00;101504.94;6084501;28;20401;-72
2023/04/16 10:44:37;;;;;;;29.05;12.20;;;;;;;7.96;100.00;101527.50;6094310;28;20026;-71
2023/04/16 10:47:39;;;;;;;24.40;11.38;;;;;;;7.93;100.00;101502.16;6074414;28;20040;-72
2023/04/16 10:50:35;;;;;;;24.23;11.23;;;;;;;7.83;100.00;101490.53;6076292;28;20035;-72
2023/04/16 10:53:32;;;;;;;25.42;10.90;;;;;;;7.85;100.00;101504.50;6075183;28;20026;-71
2023/04/16 10:56:31;;;;;;;24.08;10.43;;;;;;;8.00;100.00;101534.25;6074870;28;20144;-71
2023/04/16 10:59:30;;;;;;;24.45;12.70;;;;;;;7.96;100.00;101527.50;6059380;28;20402;-73
2023/04/16 11:02:27;;;;;;;27.63;10.82;;;;;;;7.70;100.00;101490.59;6073953;28;20529;-71
2023/04/16 11:05:23;;;;;;;27.17;11.10;;;;;;;7.98;100.00;101542.28;6073597;28;20033;-71
2023/04/16 11:08:18;;;;;;;26.38;10.38;;;;;;;7.86;100.00;101511.47;6073917;28;20091;-74
2023/04/16 11:11:13;;;;;;;24.83;10.57;;;;;;;7.93;100.00;101518.00;6074611;28;20125;-71
2023/04/16 11:14:09;;;;;;;23.90;10.60;;;;;;;7.97;100.00;101514.19;6073026;28;20040;-71
2023/04/16 11:17:05;;;;;;;23.25;10.57;;;;;;;8.06;100.00;101531.16;6074292;28;20051;-72
2023/04/16 11:20:00;;;;;;;26.98;11.88;;;;;;;7.99;100.00;101533.38;6073322;28;20079;-72
2023/04/16 11:22:56;;;;;;;24.10;10.88;;;;;;;8.01;100.00;101518.31;6031389;28;20118;-72
2023/04/16 11:25:56;;;;;;;23.00;10.65;;;;;;;8.12;100.00;101523.66;6078314;28;20091;-73
2023/04/16 11:28:52;;;;;;;22.55;10.88;;;;;;;8.31;100.00;101518.78;6073941;28;20037;-72
2023/04/16 11:31:51;;;;;;;22.30;11.45;;;;;;;8.43;100.00;101526.72;6074116;28;20041;-73
2023/04/16 11:34:46;;;;;;;26.75;11.88;;;;;;;8.46;100.00;101537.06;6072064;28;20402;-71
2023/04/16 11:37:41;;;;;;;23.37;10.43;;;;;;;8.58;100.00;101530.91;6055383;28;20080;-71
2023/04/16 11:40:37;;;;;;;22.05;10.80;;;;;;;8.63;100.00;101523.47;6073734;28;20820;-71
2023/04/16 11:43:32;;;;;;;22.57;11.23;;;;;;;8.74;100.00;101531.47;6072932;28;20590;-72
2023/04/16 11:46:38;;;;;;;21.48;10.90;;;;;;;8.67;100.00;101535.53;6073575;28;20029;-72
2023/04/16 11:49:33;;;;;;;30.23;11.35;;;;;;;8.72;100.00;101533.38;6072299;28;20044;-71
2023/04/16 11:52:34;;;;;;;21.87;11.37;;;;;;;8.75;100.00;101526.03;6072759;28;20060;-72
2023/04/16 11:55:29;;;;;;;24.85;11.82;;;;;;;8.77;100.00;101523.28;6072072;28;20386;-73
2023/04/16 11:58:25;;;;;;;25.67;10.98;;;;;;;9.02;100.00;101546.09;6072796;28;20064;-72
2023/04/16 12:01:20;;;;;;;26.23;11.35;;;;;;;8.99;100.00;101526.84;6073275;28;20022;-72
2023/04/16 12:04:18;;;;;;;23.80;11.25;;;;;;;9.11;100.00;101535.66;6090769;28;20053;-72
2023/04/16 12:07:14;;;;;;;28.85;11.48;;;;;;;9.15;100.00;101515.97;6074593;28;20060;-72
2023/04/16 12:10:09;;;;;;;24.17;10.93;;;;;;;9.47;100.00;101543.44;6075930;28;20025;-73
2023/04/16 12:13:15;;;;;;;21.63;10.75;;;;;;;9.61;100.00;101533.56;6072978;28;20116;-73
2023/04/16 12:16:19;;;;;;;23.88;10.55;;;;;;;9.76;100.00;101533.22;6070964;28;20080;-74
2023/04/16 12:19:15;;;;;;;20.85;10.00;;;;;;;9.93;100.00;101523.94;6073156;28;20061;-73
2023/04/16 12:22:35;;;;;;;25.73;10.18;;;;;;;10.17;100.00;101543.19;6074421;28;20040;-74
2023/04/16 12:25:31;;;;;;;22.00;10.35;;;;;;;10.55;100.00;101537.44;6087511;28;20028;-72
2023/04/16 12:28:27;;;;;;;19.77;9.03;;;;;;;10.57;100.00;101533.69;6088897;28;20132;-72
2023/04/16 12:31:36;;;;;;;22.48;9.88;;;;;;;10.79;100.00;101534.59;6073015;28;20064;-73
2023/04/16 12:34:31;;;;;;;20.45;10.80;;;;;;;10.48;100.00;101538.94;6072284;28;20378;-72
2023/04/16 12:37:27;;;;;;;20.37;10.13;;;;;;;10.71;100.00;101546.69;6060951;28;20056;-74
2023/04/16 12:40:22;;;;;;;20.97;10.60;;;;;;;10.91;100.00;101531.75;6073253;28;20032;-73
2023/04/16 12:43:18;;;;;;;18.73;9.43;;;;;;;11.63;100.00;101537.13;6072697;28;20034;-73
2023/04/16 12:46:13;;;;;;;19.52;9.73;;;;;;;11.50;99.36;101529.34;6072642;28;20029;-74
2023/04/16 12:49:10;;;;;;;20.97;10.17;;;;;;;11.35;100.00;101534.16;6072901;28;20034;-73
2023/04/16 12:52:05;;;;;;;24.27;10.80;;;;;;;11.31;99.97;101537.19;6072834;28;20032;-74
2023/04/16 12:55:01;;;;;;;18.75;10.07;;;;;;;11.30;99.19;101540.84;6071754;28;20092;-72
2023/04/16 12:57:56;;;;;;;20.20;9.80;;;;;;;11.68;99.48;101519.81;6072831;28;20441;-73
2023/04/16 13:00:52;;;;;;;22.43;10.23;;;;;;;12.30;98.76;101537.38;6085902;28;20108;-73
2023/04/16 13:03:47;;;;;;;20.40;10.53;;;;;;;12.12;95.89;101528.38;6073990;28;20041;-73
2023/04/16 13:06:43;;;;;;;21.17;11.60;;;;;;;12.06;96.30;101539.56;6077604;28;20049;-73
2023/04/16 13:09:38;;;;;;;23.83;10.93;;;;;;;11.74;97.40;101535.22;6076961;28;20029;-73
2023/04/16 13:12:34;;;;;;;21.00;11.47;;;;;;;11.44;99.33;101548.44;6077765;28;20070;-74
2023/04/16 13:15:29;;;;;;;22.53;10.93;;;;;;;11.20;100.00;101534.59;6076747;28;20758;-73
2023/04/16 13:18:26;;;;;;;25.80;11.73;;;;;;;11.44;100.00;101543.13;6077590;28;20041;-74
2023/04/16 13:21:22;;;;;;;20.08;10.48;;;;;;;11.24;100.00;101536.03;6077451;28;20029;-73